Flight Track Log - Related Links

Times and Time Zones

All times are in EDT time to prevent confusion due to time zone crossing. See the RPA4911 flight status page for this flight to view local times or setup timezone preferences in your user account.

Time Position Orientation Groundspeed Altitude Reporting Facility
EDT Latitude Longitude Course Direction KTS MPH feet Rate Location/Type
Thu 05:57:39 PM 42.7319 -73.8081 198° South 150 173 1,400  Level Boston Center
Thu 05:58:58 PM 42.6689 -73.8436 203° Southwest 222 255 5,000 2,544 Climbing Boston Center
Thu 05:59:44 PM 42.6311 -73.8567 194° South 230 265 6,700 2,208 Climbing Boston Center
Thu 06:00:00 PM 42.4715 -73.8529 196° South  Level Estimated
Thu 06:00:44 PM 42.5683 -73.8864 199° South 237 273 8,900  Level Boston Center
Thu 06:01:00 PM 42.3947 -73.9249 215° Southwest  Level FlightAware Approximate
Thu 06:01:44 PM 42.4928 -73.9183 197° South 261 300 10,500  Level Boston Center
Thu 06:02:00 PM 42.3019 -73.9385 198° South  Level Estimated
Thu 06:02:44 PM 42.4236 -73.9475 197° South 275 316 11,900  Level Boston Center
Thu 06:03:44 PM 42.3419 -73.9878 200° South 287 330 11,900  Level Boston Center
Thu 06:04:44 PM 42.2706 -74.0169 197° South 292 336 11,900  Level Boston Center
Thu 06:05:44 PM 42.1825 -74.0567 198° South 303 349 11,900 50 Level Boston Center
Thu 06:06:44 PM 42.1008 -74.0939 199° South 309 356 12,000 50 Climbing Boston Center
Thu 06:07:44 PM 42.0189 -74.1308 199° South 309 356 12,000  Level Boston Center
Thu 06:08:44 PM 41.9433 -74.1622 197° South 309 356 12,000 -100 Level Boston Center
Thu 06:09:44 PM 41.8531 -74.2017 198° South 314 361 11,800 -550 Descending Boston Center
Thu 06:10:44 PM 41.7775 -74.2328 197° South 321 369 10,900 -1,000 Descending Boston Center
Thu 06:11:44 PM 41.6958 -74.2667 197° South 306 352 9,800 -1,000 Descending Boston Center
Thu 06:12:44 PM 41.6328 -74.2956 199° South 281 323 8,900 -1,000 Descending Boston Center
Thu 06:13:44 PM 41.5572 -74.3319 200° South 269 310 7,800 -950 Descending Boston Center
Thu 06:14:44 PM 41.4922 -74.3578 197° South 269 310 7,000 -306 Descending Boston Center
Thu 06:16:21 PM 41.3667 -74.4000 194° South 247 284 7,000  Level New York TRACON
Thu 06:17:21 PM 41.3000 -74.4333 201° Southwest 256 295 7,000  Level New York TRACON
Thu 06:18:21 PM 41.2333 -74.4167 169° South 278 320 7,000 -400 Level New York TRACON
Thu 06:19:21 PM 41.1833 -74.3667 143° Southeast 274 315 6,200 -900 Descending New York TRACON
Thu 06:20:21 PM 41.1167 -74.3000 143° Southeast 269 310 5,200 -600 Descending New York TRACON
Thu 06:21:21 PM 41.0667 -74.2500 143° Southeast 256 295 5,000 -381 Descending New York TRACON
Thu 06:22:27 PM 40.9833 -74.1833 149° Southeast 268 308 4,400 -667 Descending New York TRACON
Thu 06:23:27 PM 40.9333 -74.1333 143° Southeast 254 292 3,600 -700 Descending New York TRACON
Thu 06:24:27 PM 40.8833 -74.0833 143° Southeast 201 231 3,000 -350 Descending New York TRACON
Thu 06:25:27 PM 40.8333 -74.0667 166° South 187 215 2,900 -100 Descending New York TRACON

Login

Don't have an account? Register now (free) for customized features, flight alerts, and more!